Time;durP1;ratioP1;P1;durP2;ratioP2;P2;SDS_P1;SDS_P2;PMS_P1;PMS_P2;Temp;Humidity;BMP_temperature;BMP_pressure;BME280_temperature;BME280_humidity;BME280_pressure;Samples;Min_cycle;Max_cycle;Signal;HPM_P1;HPM_P2
2022/11/02 00:01:36;;;;;;;1999.90;999.90;;;;;;;10.77;100.00;94798.66;4995370;28;20176;-65
2022/11/02 00:04:01;;;;;;;1999.90;999.90;;;;;;;10.81;100.00;94780.28;4995535;28;20192;-58
2022/11/02 00:06:27;;;;;;;1999.90;999.90;;;;;;;10.80;100.00;94773.25;4995774;28;20179;-67
2022/11/02 00:08:52;;;;;;;1999.90;999.90;;;;;;;10.77;100.00;94774.09;4996590;28;20172;-67
2022/11/02 00:11:17;;;;;;;1999.90;999.90;;;;;;;10.74;100.00;94772.97;4995471;28;20231;-68
2022/11/02 00:13:43;;;;;;;1999.90;999.90;;;;;;;10.72;100.00;94772.63;4995957;28;20200;-67
2022/11/02 00:16:13;;;;;;;1999.90;999.90;;;;;;;10.69;100.00;94765.28;4995431;28;20168;-69
2022/11/02 00:18:39;;;;;;;1999.90;999.90;;;;;;;10.70;100.00;94763.31;4995548;28;20183;-68
2022/11/02 00:21:05;;;;;;;1999.90;999.90;;;;;;;10.65;100.00;94777.44;4995404;28;20179;-69
2022/11/02 00:23:31;;;;;;;1999.90;999.90;;;;;;;10.56;100.00;94774.50;4995945;28;20173;-61
2022/11/02 00:25:57;;;;;;;1999.90;999.90;;;;;;;10.53;100.00;94775.31;4995331;28;20312;-61
2022/11/02 00:28:23;;;;;;;1999.90;999.90;;;;;;;10.51;100.00;94764.81;4995607;28;20295;-61
2022/11/02 00:30:48;;;;;;;1999.90;999.90;;;;;;;10.47;100.00;94755.16;4995302;28;20204;-61
2022/11/02 00:33:14;;;;;;;1999.90;999.90;;;;;;;10.45;100.00;94747.38;4995110;28;20188;-60
2022/11/02 00:35:40;;;;;;;1999.90;999.90;;;;;;;10.44;100.00;94742.34;4995086;28;20259;-60
2022/11/02 00:38:05;;;;;;;1999.90;999.90;;;;;;;10.39;100.00;94738.16;4994501;28;20624;-61
2022/11/02 00:40:31;;;;;;;1999.90;999.90;;;;;;;10.35;100.00;94734.72;4995031;28;20176;-61
2022/11/02 00:42:56;;;;;;;1999.90;999.90;;;;;;;10.34;100.00;94729.69;4995588;28;20180;-69
2022/11/02 00:45:22;;;;;;;1999.90;999.90;;;;;;;10.29;100.00;94716.50;4994719;28;20173;-57
2022/11/02 00:47:47;;;;;;;1999.90;999.90;;;;;;;10.25;100.00;94723.97;4994941;28;20176;-58
2022/11/02 00:50:13;;;;;;;1999.90;999.90;;;;;;;10.27;100.00;94697.06;4994662;28;20530;-58
2022/11/02 00:52:39;;;;;;;1999.90;999.90;;;;;;;10.28;100.00;94698.59;4994543;28;20172;-58
2022/11/02 00:55:07;;;;;;;1999.90;999.90;;;;;;;10.24;100.00;94695.16;4993720;28;20181;-58
2022/11/02 00:57:33;;;;;;;1999.90;999.90;;;;;;;10.19;100.00;94696.41;4994703;28;20179;-57
2022/11/02 00:59:58;;;;;;;1999.90;999.90;;;;;;;10.18;100.00;94700.31;4995230;28;20172;-65
2022/11/02 01:02:24;;;;;;;1999.90;999.90;;;;;;;10.17;100.00;94698.78;4994671;28;20206;-61
2022/11/02 01:04:49;;;;;;;1999.90;999.90;;;;;;;10.16;100.00;94707.38;4994142;28;20200;-65
2022/11/02 01:07:14;;;;;;;1999.90;999.90;;;;;;;10.13;100.00;94709.75;4994485;28;20172;-65
2022/11/02 01:09:40;;;;;;;1999.90;999.90;;;;;;;10.07;100.00;94719.63;4994559;28;20176;-66
2022/11/02 01:12:05;;;;;;;1999.90;999.90;;;;;;;9.98;100.00;94730.25;4994540;28;20184;-64
2022/11/02 01:14:31;;;;;;;1999.90;999.90;;;;;;;9.96;100.00;94738.09;4994373;28;20289;-66
2022/11/02 01:16:56;;;;;;;1999.90;999.90;;;;;;;9.98;100.00;94724.00;4995004;28;20176;-65
2022/11/02 01:19:23;;;;;;;1999.90;999.90;;;;;;;9.97;100.00;94715.06;4994747;28;20222;-69
2022/11/02 01:21:48;;;;;;;1999.90;999.90;;;;;;;9.95;100.00;94731.06;4994366;28;20169;-64
2022/11/02 01:24:13;;;;;;;1999.90;999.90;;;;;;;9.93;100.00;94717.09;4994173;28;20543;-64
2022/11/02 01:26:39;;;;;;;1999.90;999.90;;;;;;;9.89;100.00;94727.28;4994182;28;20175;-63
2022/11/02 01:29:04;;;;;;;1999.90;999.90;;;;;;;9.85;100.00;94732.03;4994420;28;20179;-62
2022/11/02 01:31:30;;;;;;;1999.90;999.90;;;;;;;9.74;100.00;94747.78;4994374;28;20172;-64
2022/11/02 01:33:55;;;;;;;1999.90;999.90;;;;;;;9.74;100.00;94753.25;4994635;28;20218;-64
2022/11/02 01:36:21;;;;;;;1999.90;999.90;;;;;;;9.76;100.00;94741.91;4993783;28;20547;-68
2022/11/02 01:38:47;;;;;;;1999.90;999.90;;;;;;;9.73;100.00;94743.50;4993718;28;20224;-60
2022/11/02 01:41:13;;;;;;;1999.90;999.90;;;;;;;9.70;100.00;94752.50;4994487;28;20211;-62
2022/11/02 01:43:48;;;;;;;1999.90;999.90;;;;;;;9.63;100.00;94758.09;4994546;28;20172;-62
2022/11/02 01:46:23;;;;;;;1999.90;999.90;;;;;;;9.62;100.00;94761.97;4994782;28;20255;-60
2022/11/02 01:48:56;;;;;;;1999.90;999.90;;;;;;;9.61;100.00;94748.75;4993659;28;20176;-62
2022/11/02 01:51:29;;;;;;;1999.90;999.90;;;;;;;9.58;100.00;94742.19;4994533;28;20254;-61
2022/11/02 01:54:01;;;;;;;1999.90;999.90;;;;;;;9.58;100.00;94750.38;4994065;28;20199;-61
2022/11/02 01:56:31;;;;;;;1999.90;999.90;;;;;;;9.55;100.00;94751.19;4993750;28;20251;-68
2022/11/02 01:59:00;;;;;;;1999.90;999.90;;;;;;;9.56;100.00;94757.41;4994501;28;20185;-61
2022/11/02 02:01:26;;;;;;;1999.90;999.90;;;;;;;9.57;100.00;94748.81;4993778;28;20186;-61
2022/11/02 02:03:53;;;;;;;1999.90;999.90;;;;;;;9.62;100.00;94751.06;4993881;28;20200;-62
2022/11/02 02:06:18;;;;;;;1999.90;999.90;;;;;;;9.67;100.00;94742.44;4996579;28;20681;-62
2022/11/02 02:08:46;;;;;;;1999.90;999.90;;;;;;;9.73;100.00;94740.78;4997890;28;20173;-61
2022/11/02 02:11:30;;;;;;;1999.90;999.90;;;;;;;9.80;100.00;94735.22;4997846;28;20626;-61
2022/11/02 02:14:01;;;;;;;1999.90;999.90;;;;;;;9.91;100.00;94721.44;4997521;28;20254;-64
2022/11/02 02:17:04;;;;;;;1999.90;999.90;;;;;;;9.97;100.00;94717.81;4997580;28;20211;-68
2022/11/02 02:19:56;;;;;;;1999.90;999.90;;;;;;;9.98;100.00;94713.88;4997578;28;20207;-68
2022/11/02 02:22:46;;;;;;;1999.90;999.90;;;;;;;10.02;100.00;94713.84;4998159;28;20236;-68
2022/11/02 02:25:37;;;;;;;1999.90;999.90;;;;;;;10.03;100.00;94721.56;4998048;28;20180;-68
2022/11/02 02:28:28;;;;;;;1999.90;999.90;;;;;;;9.99;100.00;94739.97;4997951;28;20618;-68
2022/11/02 02:30:59;;;;;;;1999.90;999.90;;;;;;;9.95;100.00;94758.34;4998050;28;20176;-68
2022/11/02 02:33:38;;;;;;;1999.90;999.90;;;;;;;9.93;100.00;94777.09;4997712;28;20196;-57
2022/11/02 02:36:12;;;;;;;1999.90;999.90;;;;;;;9.91;100.00;94779.44;4998033;28;20172;-61
2022/11/02 02:38:47;;;;;;;1999.90;999.90;;;;;;;9.93;100.00;94788.00;4997073;28;20230;-61
2022/11/02 02:41:12;;;;;;;1999.90;999.90;;;;;;;9.89;100.00;94787.28;4997275;28;20178;-61
2022/11/02 02:43:45;;;;;;;1999.90;999.90;;;;;;;9.87;100.00;94795.09;4997722;28;20184;-61
2022/11/02 02:46:19;;;;;;;1999.90;999.90;;;;;;;9.89;100.00;94797.41;4996734;28;20176;-63
2022/11/02 02:48:47;;;;;;;1999.90;999.90;;;;;;;9.90;100.00;94797.00;4996962;28;20172;-62
2022/11/02 02:51:21;;;;;;;1999.90;999.90;;;;;;;9.95;100.00;94796.53;4997124;28;20184;-69
2022/11/02 02:53:52;;;;;;;1999.90;999.90;;;;;;;9.99;100.00;94794.50;4997464;28;20204;-61
2022/11/02 02:56:22;;;;;;;1999.90;999.90;;;;;;;10.04;100.00;94802.25;4997324;28;20172;-61
2022/11/02 02:58:55;;;;;;;1999.90;999.90;;;;;;;10.12;100.00;94804.91;4996780;28;20267;-60
2022/11/02 03:01:22;;;;;;;1999.90;999.90;;;;;;;10.19;100.00;94799.31;4996927;28;20560;-60
2022/11/02 03:03:47;;;;;;;1999.90;999.90;;;;;;;10.24;100.00;94796.13;4996759;28;20598;-60
2022/11/02 03:06:19;;;;;;;1999.90;999.90;;;;;;;10.31;100.00;94785.09;4996296;28;20236;-60
2022/11/02 03:08:54;;;;;;;1999.90;999.90;;;;;;;10.38;100.00;94784.97;4996627;28;20169;-67
2022/11/02 03:11:20;;;;;;;1999.90;999.90;;;;;;;10.44;100.00;94786.00;4996618;28;20174;-65
2022/11/02 03:13:49;;;;;;;1999.90;999.90;;;;;;;10.44;100.00;94794.97;4996502;28;20250;-57
2022/11/02 03:16:14;;;;;;;1999.90;999.90;;;;;;;10.45;100.00;94793.03;4996411;28;20180;-57
2022/11/02 03:18:42;;;;;;;1999.90;999.90;;;;;;;10.53;100.00;94799.91;4995911;28;20197;-57
2022/11/02 03:21:22;;;;;;;1999.90;999.90;;;;;;;10.57;100.00;94816.97;4996213;28;20183;-57
2022/11/02 03:24:20;;;;;;;1999.90;999.90;;;;;;;10.60;100.00;94825.09;4996588;28;20184;-57
2022/11/02 03:26:54;;;;;;;1999.90;999.90;;;;;;;10.67;100.00;94843.34;4991829;28;20187;-64
2022/11/02 03:29:25;;;;;;;1999.90;999.90;;;;;;;10.77;100.00;94842.34;4997006;28;20182;-67
2022/11/02 03:32:08;;;;;;;1999.90;999.90;;;;;;;10.88;100.00;94840.19;4996817;28;20173;-63
2022/11/02 03:34:42;;;;;;;1999.90;999.90;;;;;;;10.96;100.00;94833.44;4996911;28;20246;-63
2022/11/02 03:37:35;;;;;;;1999.90;999.90;;;;;;;11.02;100.00;94850.88;4998037;28;20165;-63
2022/11/02 03:40:10;;;;;;;1999.90;999.90;;;;;;;11.06;100.00;94863.28;4999574;28;20181;-65
2022/11/02 03:42:36;;;;;;;1999.90;999.90;;;;;;;11.09;100.00;94878.06;4999876;28;20175;-64
2022/11/02 03:45:24;;;;;;;1999.90;999.90;;;;;;;11.17;100.00;94887.66;4999185;28;20179;-62
2022/11/02 03:47:58;;;;;;;1999.90;999.90;;;;;;;11.22;100.00;94909.06;5000028;28;20177;-67
2022/11/02 03:50:26;;;;;;;1999.90;999.90;;;;;;;11.27;100.00;94919.50;4999890;28;20212;-61
2022/11/02 03:53:06;;;;;;;1999.90;999.90;;;;;;;11.31;100.00;94926.47;4999328;28;20627;-61
2022/11/02 03:55:40;;;;;;;1999.90;999.90;;;;;;;11.32;100.00;94908.84;4999870;28;20200;-61
2022/11/02 03:58:10;;;;;;;1999.90;999.90;;;;;;;11.31;100.00;94928.41;4999185;28;20217;-61
2022/11/02 04:00:37;;;;;;;1999.90;999.90;;;;;;;11.27;100.00;94930.44;4999280;28;20174;-61
2022/11/02 04:03:05;;;;;;;1999.90;999.90;;;;;;;11.22;100.00;94934.41;4999341;28;20279;-61
2022/11/02 04:05:34;;;;;;;1999.90;999.90;;;;;;;11.17;100.00;94937.66;4998676;28;20205;-66
2022/11/02 04:16:13;;;;;;;1999.90;999.90;;;;;;;10.96;100.00;94935.28;5016275;28;20169;-61
2022/11/02 04:21:22;;;;;;;1999.90;999.90;;;;;;;10.85;100.00;94903.88;5016124;28;20179;-60
2022/11/02 04:26:31;;;;;;;1999.90;999.90;;;;;;;10.81;100.00;94862.22;5016005;28;20179;-64
2022/11/02 04:28:57;;;;;;;1999.90;999.90;;;;;;;10.83;100.00;94837.97;4998629;28;20176;-64
2022/11/02 04:31:22;;;;;;;1999.90;999.90;;;;;;;10.83;100.00;94816.91;4998307;28;20210;-64
2022/11/02 04:33:47;;;;;;;1999.90;999.90;;;;;;;10.88;100.00;94769.19;4998401;28;20333;-67
2022/11/02 04:36:13;;;;;;;1999.90;999.90;;;;;;;10.90;100.00;94750.44;4998363;28;20180;-64
2022/11/02 04:38:41;;;;;;;1999.90;999.90;;;;;;;10.92;100.00;94732.41;4998136;28;20225;-65
2022/11/02 04:43:51;;;;;;;1999.90;999.90;;;;;;;10.85;100.00;94709.97;5015439;28;20167;-57
2022/11/02 04:46:17;;;;;;;1999.90;999.90;;;;;;;10.83;100.00;94693.22;4997911;28;20183;-57
2022/11/02 04:48:42;;;;;;;1999.90;999.90;;;;;;;10.81;100.00;94669.06;4998102;28;20287;-57
2022/11/02 04:51:08;;;;;;;1999.90;999.90;;;;;;;10.78;100.00;94666.41;4998303;28;20210;-57
2022/11/02 04:53:34;;;;;;;1999.90;999.90;;;;;;;10.75;100.00;94662.56;4998400;28;20552;-58
2022/11/02 04:55:59;;;;;;;1999.90;999.90;;;;;;;10.74;100.00;94662.97;5015404;28;20191;-57
2022/11/02 04:58:25;;;;;;;1999.90;999.90;;;;;;;10.72;100.00;94641.56;4997911;28;20549;-57
2022/11/02 05:00:50;;;;;;;1999.90;999.90;;;;;;;10.69;100.00;94649.81;4997942;28;20216;-65
2022/11/02 05:03:15;;;;;;;1999.90;999.90;;;;;;;10.67;100.00;94638.56;4997769;28;20251;-68
2022/11/02 05:05:41;;;;;;;1999.90;999.90;;;;;;;10.63;100.00;94632.41;4997672;28;20230;-67
2022/11/02 05:08:06;;;;;;;1999.90;999.90;;;;;;;10.65;100.00;94624.53;4998409;28;20184;-67
2022/11/02 05:10:31;;;;;;;1999.90;999.90;;;;;;;10.62;100.00;94603.53;4998515;28;20182;-67
2022/11/02 05:12:58;;;;;;;1999.90;999.90;;;;;;;10.65;100.00;94599.97;4997355;28;20274;-65
2022/11/02 05:15:24;;;;;;;1999.90;999.90;;;;;;;10.63;100.00;94583.25;4997657;28;20240;-66
2022/11/02 05:17:50;;;;;;;1999.90;999.90;;;;;;;10.66;100.00;94571.47;4997531;28;20183;-58
2022/11/02 05:20:15;;;;;;;1999.90;999.90;;;;;;;10.65;100.00;94561.75;4997715;28;20179;-67
2022/11/02 05:22:41;;;;;;;1999.90;999.90;;;;;;;10.68;100.00;94548.03;4997558;28;20180;-66
2022/11/02 05:25:08;;;;;;;1999.90;999.90;;;;;;;10.72;100.00;94542.47;4997570;28;20222;-66
2022/11/02 05:27:33;;;;;;;1999.90;999.90;;;;;;;10.75;100.00;94526.03;4997516;28;20179;-67
2022/11/02 05:29:58;;;;;;;1999.90;999.90;;;;;;;10.79;100.00;94523.19;4997598;28;20190;-69
2022/11/02 05:32:25;;;;;;;1999.90;999.90;;;;;;;10.80;100.00;94522.00;4997108;28;20179;-67
2022/11/02 05:34:50;;;;;;;1999.90;999.90;;;;;;;10.81;100.00;94512.63;4997071;28;20203;-67
2022/11/02 05:37:16;;;;;;;1999.90;999.90;;;;;;;10.84;100.00;94511.75;4996826;28;20183;-64
2022/11/02 05:39:41;;;;;;;1999.90;999.90;;;;;;;10.86;100.00;94504.69;4997333;28;20170;-60
2022/11/02 05:42:07;;;;;;;1999.90;999.90;;;;;;;10.86;100.00;94501.19;4996927;28;20187;-58
2022/11/02 05:44:32;;;;;;;1999.90;999.90;;;;;;;10.84;100.00;94498.88;4997288;28;20216;-59
2022/11/02 05:46:58;;;;;;;1999.90;999.90;;;;;;;10.84;100.00;94496.16;4997210;28;20179;-59
2022/11/02 05:49:23;;;;;;;1999.90;999.90;;;;;;;10.87;100.00;94494.53;4997151;28;20189;-59
2022/11/02 05:51:48;;;;;;;1999.90;999.90;;;;;;;10.85;100.00;94507.84;4997217;28;20175;-59
2022/11/02 05:54:14;;;;;;;1999.90;999.90;;;;;;;10.88;100.00;94502.28;4996848;28;20616;-64
2022/11/02 05:56:39;;;;;;;1999.90;999.90;;;;;;;10.89;100.00;94508.53;4997126;28;20610;-61
2022/11/02 05:59:04;;;;;;;1999.90;999.90;;;;;;;10.93;100.00;94517.41;4997354;28;20180;-62
2022/11/02 06:01:30;;;;;;;1999.90;999.90;;;;;;;10.94;100.00;94527.13;4997927;28;20191;-62
2022/11/02 06:03:55;;;;;;;1999.90;999.90;;;;;;;10.98;100.00;94525.84;4997280;28;20674;-63
2022/11/02 06:06:21;;;;;;;1999.90;999.90;;;;;;;11.01;100.00;94526.97;4996889;28;20253;-62
2022/11/02 06:08:46;;;;;;;1999.90;999.90;;;;;;;11.03;100.00;94538.25;4997425;28;20185;-62
2022/11/02 06:11:13;;;;;;;1999.90;999.90;;;;;;;11.08;100.00;94554.91;4997188;28;20181;-63
2022/11/02 06:13:39;;;;;;;1999.90;999.90;;;;;;;11.10;100.00;94565.38;4997455;28;20208;-68
2022/11/02 06:16:09;;;;;;;1999.90;999.90;;;;;;;11.12;100.00;94588.38;4996893;28;20636;-70
2022/11/02 06:18:36;;;;;;;1999.90;999.90;;;;;;;11.15;100.00;94600.41;4997002;28;20189;-69
2022/11/02 06:21:01;;;;;;;1999.90;999.90;;;;;;;11.16;100.00;94621.06;4997058;28;20236;-68
2022/11/02 06:23:28;;;;;;;1999.90;999.90;;;;;;;11.17;100.00;94636.25;4997015;28;20607;-68
2022/11/02 06:25:56;;;;;;;1999.90;999.90;;;;;;;11.21;100.00;94642.41;4996694;28;20177;-68
2022/11/02 06:28:22;;;;;;;1999.90;999.90;;;;;;;11.24;100.00;94660.69;4996739;28;20677;-71
2022/11/02 06:30:48;;;;;;;1999.90;999.90;;;;;;;11.32;100.00;94667.53;4996786;28;20181;-67
2022/11/02 06:33:14;;;;;;;1999.90;999.90;;;;;;;11.37;100.00;94691.66;4997065;28;20212;-67
2022/11/02 06:35:42;;;;;;;1999.90;999.90;;;;;;;11.41;100.00;94708.75;4997058;28;20177;-64
2022/11/02 06:38:08;;;;;;;1999.90;999.90;;;;;;;11.46;100.00;94730.09;4996562;28;20224;-63
2022/11/02 06:40:33;;;;;;;1999.90;999.90;;;;;;;11.50;100.00;94760.84;4996769;28;20176;-64
2022/11/02 06:42:58;;;;;;;1999.90;999.90;;;;;;;11.54;100.00;94792.41;4996826;28;20172;-64
2022/11/02 06:45:24;;;;;;;1999.90;999.90;;;;;;;11.61;100.00;94833.31;4996569;28;20181;-64
2022/11/02 06:47:50;;;;;;;1999.90;999.90;;;;;;;11.63;100.00;94862.97;4996563;28;20521;-64
2022/11/02 06:50:15;;;;;;;1999.90;999.90;;;;;;;11.68;100.00;94898.81;4997157;28;20287;-72
2022/11/02 06:52:45;;;;;;;1999.90;999.90;;;;;;;11.72;100.00;94937.00;4997746;28;20186;-63
2022/11/02 06:55:12;;;;;;;1999.90;999.90;;;;;;;11.82;100.00;94963.38;4999832;28;20177;-62
2022/11/02 06:57:39;;;;;;;1999.90;999.90;;;;;;;11.88;100.00;94997.28;5000032;28;20187;-63
2022/11/02 07:00:08;;;;;;;1999.90;999.90;;;;;;;11.99;100.00;95047.09;4999619;28;20168;-63
2022/11/02 07:02:34;;;;;;;1999.90;999.90;;;;;;;12.34;100.00;95106.63;5000305;28;20177;-63
2022/11/02 07:05:01;;;;;;;1999.90;999.90;;;;;;;13.26;100.00;95185.78;4999895;28;20210;-63
2022/11/02 07:07:26;;;;;;;1999.90;999.90;;;;;;;13.96;100.00;95320.63;5000402;28;20182;-67
2022/11/02 07:09:52;;;;;;;1999.90;999.90;;;;;;;14.14;100.00;95481.06;4999825;28;20183;-67
2022/11/02 07:12:17;;;;;;;1999.90;999.90;;;;;;;14.16;100.00;95632.47;5000148;28;20195;-68
2022/11/02 07:14:42;;;;;;;1999.90;999.90;;;;;;;14.13;100.00;95726.69;4999787;28;20245;-67
2022/11/02 07:17:08;;;;;;;1999.90;999.90;;;;;;;14.66;100.00;95770.56;4999414;28;20182;-68
2022/11/02 07:19:33;;;;;;;1999.90;999.90;;;;;;;15.85;100.00;95837.03;5000118;28;20190;-71
2022/11/02 07:21:58;;;;;;;1999.90;999.90;;;;;;;16.99;100.00;95918.72;5000037;28;20171;-69
2022/11/02 07:24:24;;;;;;;1999.90;999.90;;;;;;;17.78;100.00;95991.69;4999627;28;20175;-69
2022/11/02 07:26:49;;;;;;;1999.90;999.90;;;;;;;18.81;100.00;96010.50;4999863;28;20171;-62
2022/11/02 07:29:16;;;;;;;1999.90;999.90;;;;;;;18.82;100.00;96042.50;4999344;28;20185;-64
2022/11/02 07:31:41;;;;;;;1999.90;999.90;;;;;;;18.61;100.00;96051.44;4999484;28;20215;-63
2022/11/02 07:34:07;;;;;;;1999.90;999.90;;;;;;;19.45;100.00;96052.41;4999279;28;20249;-62
2022/11/02 07:36:32;;;;;;;1999.90;999.90;;;;;;;19.69;100.00;96052.84;4999397;28;20179;-63
2022/11/02 07:38:57;;;;;;;1999.90;999.90;;;;;;;20.24;100.00;96066.03;4999538;28;20243;-64
2022/11/02 07:41:23;;;;;;;1999.90;999.90;;;;;;;20.78;100.00;96066.47;5016479;28;20179;-64
2022/11/02 07:43:48;;;;;;;1999.90;999.90;;;;;;;20.99;100.00;96060.16;4999536;28;20211;-64
2022/11/02 07:46:13;;;;;;;1999.90;999.90;;;;;;;21.80;100.00;96063.28;4999520;28;20190;-72
2022/11/02 07:48:39;;;;;;;1999.90;999.90;;;;;;;21.55;100.00;96071.84;4999057;28;20238;-68
2022/11/02 07:51:06;;;;;;;1999.90;999.90;;;;;;;22.03;100.00;96079.41;4999277;28;20179;-68
2022/11/02 07:53:32;;;;;;;1999.90;999.90;;;;;;;22.38;100.00;96077.91;4999468;28;20203;-67
2022/11/02 07:55:59;;;;;;;1999.90;999.90;;;;;;;22.36;100.00;96074.03;4998779;28;20237;-67
2022/11/02 07:58:25;;;;;;;1999.90;999.90;;;;;;;22.37;100.00;96078.38;4998661;28;20198;-67
2022/11/02 08:00:53;;;;;;;1999.90;999.90;;;;;;;22.79;100.00;96092.50;4999879;28;20206;-68
2022/11/02 08:03:18;;;;;;;1999.90;999.90;;;;;;;22.08;100.00;96089.94;4999157;28;20215;-75
2022/11/02 08:05:44;;;;;;;1999.90;999.90;;;;;;;21.92;100.00;96081.88;4999617;28;20275;-63
2022/11/02 08:08:12;;;;;;;1999.90;999.90;;;;;;;22.33;100.00;96084.09;4998860;28;20213;-60
2022/11/02 08:10:37;;;;;;;1999.90;999.90;;;;;;;22.65;100.00;96079.19;4998842;28;20188;-59
2022/11/02 08:13:03;;;;;;;1999.90;999.90;;;;;;;23.64;100.00;96078.97;4998515;28;20293;-59
2022/11/02 08:15:28;;;;;;;1999.90;999.90;;;;;;;23.40;100.00;96084.50;4998184;28;20175;-58
2022/11/02 08:18:03;;;;;;;1999.90;999.90;;;;;;;22.74;100.00;96090.31;4998803;28;20214;-58
2022/11/02 08:20:29;;;;;;;1999.90;999.90;;;;;;;22.67;100.00;96090.63;4998129;28;20171;-58
2022/11/02 08:22:55;;;;;;;1999.90;999.90;;;;;;;21.67;100.00;96087.63;4998872;28;20583;-70
2022/11/02 08:25:20;;;;;;;1999.90;999.90;;;;;;;21.27;100.00;96084.06;4998569;28;20175;-62
2022/11/02 08:27:45;;;;;;;1999.90;999.90;;;;;;;20.30;100.00;96092.00;4998848;28;20171;-62
2022/11/02 08:30:11;;;;;;;1999.90;999.90;;;;;;;19.75;100.00;96100.97;4997999;28;20179;-61
2022/11/02 08:32:37;;;;;;;1999.90;999.90;;;;;;;19.28;100.00;96105.63;4998423;28;20172;-61
2022/11/02 08:35:03;;;;;;;1999.90;999.90;;;;;;;18.92;100.00;96100.34;4998227;28;20214;-61
2022/11/02 08:37:28;;;;;;;1999.90;999.90;;;;;;;18.86;100.00;96101.28;4994879;28;20216;-62
2022/11/02 08:39:54;;;;;;;1999.90;999.90;;;;;;;19.09;100.00;96109.34;4995158;28;20176;-73
2022/11/02 08:42:19;;;;;;;1999.90;999.90;;;;;;;19.34;100.00;96098.31;4995022;28;20172;-67
2022/11/02 08:44:44;;;;;;;1999.90;999.90;;;;;;;20.31;100.00;96095.53;4994648;28;20210;-61
2022/11/02 08:47:10;;;;;;;1999.90;999.90;;;;;;;21.46;100.00;96094.03;4995169;28;20206;-62
2022/11/02 08:49:38;;;;;;;1999.90;999.90;;;;;;;22.56;100.00;96090.31;4995381;28;20235;-61
2022/11/02 08:52:04;;;;;;;1999.90;999.90;;;;;;;23.45;100.00;96081.06;4994878;28;20172;-62
2022/11/02 08:54:29;;;;;;;1999.90;999.90;;;;;;;23.99;100.00;96086.41;4994740;28;20250;-63
2022/11/02 08:56:54;;;;;;;1999.90;999.90;;;;;;;23.99;100.00;96086.41;4994595;28;20175;-63
2022/11/02 08:59:19;;;;;;;1999.90;999.90;;;;;;;22.43;100.00;96090.44;4994220;28;20172;-58
2022/11/02 09:01:45;;;;;;;1999.90;999.90;;;;;;;21.54;100.00;96091.75;4994752;28;20222;-74
2022/11/02 09:04:10;;;;;;;1999.90;999.90;;;;;;;21.04;100.00;96090.09;4994538;28;20234;-73
2022/11/02 09:06:35;;;;;;;1999.90;999.90;;;;;;;20.58;100.00;96090.97;4994819;28;20184;-74
2022/11/02 09:09:01;;;;;;;1999.90;999.90;;;;;;;20.69;100.00;96096.16;4994190;28;20202;-69
2022/11/02 09:11:26;;;;;;;1999.90;999.90;;;;;;;21.12;100.00;96091.38;4994506;28;20218;-68
2022/11/02 09:13:52;;;;;;;1999.90;999.90;;;;;;;20.84;100.00;96100.75;4994120;28;20219;-69
2022/11/02 09:16:17;;;;;;;1999.90;999.90;;;;;;;21.71;100.00;96102.19;4993684;28;20190;-69
2022/11/02 09:18:42;;;;;;;1999.90;999.90;;;;;;;22.14;100.00;96098.44;4994338;28;20204;-61
2022/11/02 09:21:08;;;;;;;1999.90;999.90;;;;;;;22.34;100.00;96098.78;4994854;28;20223;-68
2022/11/02 09:23:33;;;;;;;1999.90;999.90;;;;;;;23.33;100.00;96103.56;4994670;28;20183;-69
2022/11/02 09:25:59;;;;;;;1999.90;999.90;;;;;;;22.81;100.00;96103.94;4994102;28;20176;-66
2022/11/02 09:28:24;;;;;;;1999.90;999.90;;;;;;;22.40;100.00;96105.31;4994183;28;20175;-69
2022/11/02 09:30:50;;;;;;;1999.90;999.90;;;;;;;22.19;100.00;96106.94;4994238;28;20180;-67
2022/11/02 09:33:16;;;;;;;1999.90;999.90;;;;;;;22.25;100.00;96101.53;4994157;28;20202;-66
2022/11/02 09:35:44;;;;;;;1999.90;999.90;;;;;;;21.46;100.00;96094.03;4994593;28;20309;-66
2022/11/02 09:38:10;;;;;;;1999.90;999.90;;;;;;;20.35;100.00;96113.63;4993777;28;20231;-58
2022/11/02 09:41:00;;;;;;;1999.90;999.90;;;;;;;19.98;100.00;96113.66;5010371;28;20238;-58
2022/11/02 09:43:44;;;;;;;1999.90;999.90;;;;;;;19.77;100.00;96109.59;4995393;28;20266;-58
2022/11/02 09:46:22;;;;;;;1999.90;999.90;;;;;;;19.49;100.00;96127.13;4994565;28;20179;-58
2022/11/02 09:49:05;;;;;;;1999.90;999.90;;;;;;;19.15;100.00;96118.63;4994651;28;20176;-58
2022/11/02 09:51:47;;;;;;;1999.90;999.90;;;;;;;19.15;100.00;96124.19;4993723;28;20191;-58
2022/11/02 09:54:24;;;;;;;1999.90;999.90;;;;;;;18.89;100.00;96117.03;4993932;28;20204;-73
2022/11/02 09:56:51;;;;;;;1999.90;999.90;;;;;;;18.52;100.00;96126.00;4994399;28;20176;-66
2022/11/02 09:59:20;;;;;;;1999.90;999.90;;;;;;;18.27;100.00;96123.06;4993953;28;20175;-69
2022/11/02 10:02:13;;;;;;;1999.90;999.90;;;;;;;18.04;100.00;96126.84;4993799;28;20234;-67
2022/11/02 10:04:41;;;;;;;1999.90;999.90;;;;;;;17.93;100.00;96122.78;4994516;28;20238;-66
2022/11/02 10:07:09;;;;;;;1999.90;999.90;;;;;;;17.73;100.00;96127.59;4994433;28;20186;-67
2022/11/02 10:09:57;;;;;;;1999.90;999.90;;;;;;;17.72;100.00;96137.09;4994951;28;20267;-66
2022/11/02 10:12:30;;;;;;;1999.90;999.90;;;;;;;17.76;100.00;96129.50;4993911;28;20230;-63
2022/11/02 10:15:04;;;;;;;1999.90;999.90;;;;;;;17.88;100.00;96137.88;4994306;28;20200;-72
2022/11/02 10:17:35;;;;;;;1999.90;999.90;;;;;;;18.37;100.00;96135.88;4993389;28;20173;-72
2022/11/02 10:20:06;;;;;;;1999.90;999.90;;;;;;;18.53;100.00;96135.84;4993261;28;20169;-71
2022/11/02 10:22:38;;;;;;;1999.90;999.90;;;;;;;18.40;100.00;96132.25;4994234;28;20180;-71
2022/11/02 10:25:06;;;;;;;1999.90;999.90;;;;;;;18.65;100.00;96132.38;4994222;28;20181;-71
2022/11/02 10:27:36;;;;;;;1999.90;999.90;;;;;;;18.65;100.00;96140.66;4996409;28;20180;-71
2022/11/02 10:30:03;;;;;;;1999.90;999.90;;;;;;;18.52;100.00;96131.53;4997984;28;20171;-62
2022/11/02 10:32:31;;;;;;;1999.90;999.90;;;;;;;18.50;100.00;96133.97;4997370;28;20187;-62
2022/11/02 10:34:57;;;;;;;1999.90;999.90;;;;;;;18.60;100.00;96132.88;4997676;28;20673;-74
2022/11/02 10:37:55;;;;;;;1999.90;999.90;;;;;;;18.59;100.00;96136.88;4997073;28;20231;-71
2022/11/02 10:40:21;;;;;;;1999.90;999.90;;;;;;;18.37;100.00;96141.41;4997604;28;20184;-73
2022/11/02 10:42:59;;;;;;;1999.90;999.90;;;;;;;18.36;100.00;96134.34;4997321;28;20238;-73
2022/11/02 10:45:52;;;;;;;1999.90;999.90;;;;;;;18.18;100.00;96145.03;4997760;28;20179;-74
2022/11/02 10:48:17;;;;;;;1999.90;999.90;;;;;;;17.94;100.00;96129.84;4997241;28;20232;-63
2022/11/02 10:50:47;;;;;;;1999.90;999.90;;;;;;;18.08;100.00;96137.78;4997280;28;20191;-68
2022/11/02 10:53:19;;;;;;;1999.90;999.90;;;;;;;18.03;100.00;96133.56;4997109;28;20180;-73
2022/11/02 10:56:11;;;;;;;1999.90;999.90;;;;;;;18.00;100.00;96131.69;4996828;28;20176;-73
2022/11/02 10:58:42;;;;;;;1999.90;999.90;;;;;;;18.07;100.00;96141.78;4995436;28;20637;-73
2022/11/02 11:01:09;;;;;;;1999.90;999.90;;;;;;;17.87;100.00;96130.00;4996760;28;20180;-74
2022/11/02 11:03:53;;;;;;;1999.90;999.90;;;;;;;17.75;100.00;96127.94;4996311;28;20273;-74
2022/11/02 11:06:19;;;;;;;1999.90;999.90;;;;;;;17.69;100.00;96118.63;4997317;28;20184;-73
2022/11/02 11:08:50;;;;;;;1999.90;999.90;;;;;;;17.90;100.00;96134.69;4996512;28;20180;-63
2022/11/02 11:11:36;;;;;;;1999.90;999.90;;;;;;;17.89;100.00;96127.63;4996820;28;20180;-61